sensor_id;sensor_type;location;lat;lon;timestamp;temperature;humidity
67759;SHT31;54562;47.620;18.786;2022-09-25T00:02:03;13.43;68.51
67759;SHT31;54562;47.620;18.786;2022-09-25T00:05:12;13.41;68.53
67759;SHT31;54562;47.620;18.786;2022-09-25T00:08:21;13.41;68.53
67759;SHT31;54562;47.620;18.786;2022-09-25T00:11:30;13.38;68.72
67759;SHT31;54562;47.620;18.786;2022-09-25T00:14:42;13.34;68.78
67759;SHT31;54562;47.620;18.786;2022-09-25T00:17:55;13.33;68.79
67759;SHT31;54562;47.620;18.786;2022-09-25T00:21:04;13.33;68.71
67759;SHT31;54562;47.620;18.786;2022-09-25T00:24:15;13.35;68.75
67759;SHT31;54562;47.620;18.786;2022-09-25T00:27:24;13.38;68.72
67759;SHT31;54562;47.620;18.786;2022-09-25T00:30:33;13.39;68.73
67759;SHT31;54562;47.620;18.786;2022-09-25T00:33:45;13.42;68.71
67759;SHT31;54562;47.620;18.786;2022-09-25T00:36:54;13.45;68.62
67759;SHT31;54562;47.620;18.786;2022-09-25T00:40:03;13.48;68.68
67759;SHT31;54562;47.620;18.786;2022-09-25T00:43:14;13.51;68.65
67759;SHT31;54562;47.620;18.786;2022-09-25T00:46:40;13.53;68.68
67759;SHT31;54562;47.620;18.786;2022-09-25T00:49:50;13.54;68.70
67759;SHT31;54562;47.620;18.786;2022-09-25T00:53:06;13.55;68.70
67759;SHT31;54562;47.620;18.786;2022-09-25T00:56:20;13.55;68.70
67759;SHT31;54562;47.620;18.786;2022-09-25T00:59:28;13.57;68.72
67759;SHT31;54562;47.620;18.786;2022-09-25T01:02:42;13.57;68.70
67759;SHT31;54562;47.620;18.786;2022-09-25T01:05:56;13.59;68.73
67759;SHT31;54562;47.620;18.786;2022-09-25T01:09:06;13.59;68.70
67759;SHT31;54562;47.620;18.786;2022-09-25T01:12:13;13.59;68.66
67759;SHT31;54562;47.620;18.786;2022-09-25T01:15:22;13.60;68.68
67759;SHT31;54562;47.620;18.786;2022-09-25T01:18:46;13.60;68.67
67759;SHT31;54562;47.620;18.786;2022-09-25T01:22:14;13.60;68.77
67759;SHT31;54562;47.620;18.786;2022-09-25T01:25:38;13.60;68.88
67759;SHT31;54562;47.620;18.786;2022-09-25T01:29:08;13.59;68.92
67759;SHT31;54562;47.620;18.786;2022-09-25T01:32:21;13.60;68.95
67759;SHT31;54562;47.620;18.786;2022-09-25T01:35:38;13.59;68.97
67759;SHT31;54562;47.620;18.786;2022-09-25T01:38:56;13.57;69.08
67759;SHT31;54562;47.620;18.786;2022-09-25T01:42:16;13.56;69.15
67759;SHT31;54562;47.620;18.786;2022-09-25T01:45:29;13.50;69.26
67759;SHT31;54562;47.620;18.786;2022-09-25T01:48:47;13.38;69.36
67759;SHT31;54562;47.620;18.786;2022-09-25T01:52:00;13.26;69.31
67759;SHT31;54562;47.620;18.786;2022-09-25T01:55:17;13.12;69.43
67759;SHT31;54562;47.620;18.786;2022-09-25T01:58:31;12.96;69.68
67759;SHT31;54562;47.620;18.786;2022-09-25T02:01:46;12.82;69.96
67759;SHT31;54562;47.620;18.786;2022-09-25T02:04:57;12.70;70.23
67759;SHT31;54562;47.620;18.786;2022-09-25T02:08:14;12.60;70.59
67759;SHT31;54562;47.620;18.786;2022-09-25T02:11:30;12.49;70.80
67759;SHT31;54562;47.620;18.786;2022-09-25T02:14:45;12.37;71.00
67759;SHT31;54562;47.620;18.786;2022-09-25T02:17:58;12.27;71.27
67759;SHT31;54562;47.620;18.786;2022-09-25T02:21:31;12.19;71.49
67759;SHT31;54562;47.620;18.786;2022-09-25T02:24:54;12.11;71.69
67759;SHT31;54562;47.620;18.786;2022-09-25T02:28:12;12.03;71.97
67759;SHT31;54562;47.620;18.786;2022-09-25T02:31:21;11.98;72.10
67759;SHT31;54562;47.620;18.786;2022-09-25T02:34:38;11.95;72.46
67759;SHT31;54562;47.620;18.786;2022-09-25T02:37:47;11.92;72.59
67759;SHT31;54562;47.620;18.786;2022-09-25T02:40:58;11.89;72.68
67759;SHT31;54562;47.620;18.786;2022-09-25T02:44:18;11.85;72.87
67759;SHT31;54562;47.620;18.786;2022-09-25T02:47:46;11.83;72.97
67759;SHT31;54562;47.620;18.786;2022-09-25T02:51:08;11.82;73.13
67759;SHT31;54562;47.620;18.786;2022-09-25T02:54:31;11.80;73.28
67759;SHT31;54562;47.620;18.786;2022-09-25T02:57:50;11.76;73.43
67759;SHT31;54562;47.620;18.786;2022-09-25T03:01:05;11.70;73.61
67759;SHT31;54562;47.620;18.786;2022-09-25T03:04:17;11.63;73.72
67759;SHT31;54562;47.620;18.786;2022-09-25T03:07:28;11.56;73.81
67759;SHT31;54562;47.620;18.786;2022-09-25T03:10:57;11.52;73.92
67759;SHT31;54562;47.620;18.786;2022-09-25T03:14:07;11.45;73.98
67759;SHT31;54562;47.620;18.786;2022-09-25T03:17:16;11.40;74.13
67759;SHT31;54562;47.620;18.786;2022-09-25T03:20:25;11.37;74.32
67759;SHT31;54562;47.620;18.786;2022-09-25T03:23:33;11.35;74.36
67759;SHT31;54562;47.620;18.786;2022-09-25T03:26:42;11.30;74.49
67759;SHT31;54562;47.620;18.786;2022-09-25T03:29:50;11.25;74.63
67759;SHT31;54562;47.620;18.786;2022-09-25T03:32:58;11.23;74.94
67759;SHT31;54562;47.620;18.786;2022-09-25T03:36:09;11.23;75.10
67759;SHT31;54562;47.620;18.786;2022-09-25T03:39:20;11.26;75.03
67759;SHT31;54562;47.620;18.786;2022-09-25T03:42:29;11.27;75.00
67759;SHT31;54562;47.620;18.786;2022-09-25T03:45:38;11.28;74.90
67759;SHT31;54562;47.620;18.786;2022-09-25T03:48:48;11.27;75.03
67759;SHT31;54562;47.620;18.786;2022-09-25T03:51:59;11.27;75.11
67759;SHT31;54562;47.620;18.786;2022-09-25T03:55:08;11.29;75.10
67759;SHT31;54562;47.620;18.786;2022-09-25T03:58:16;11.30;75.18
67759;SHT31;54562;47.620;18.786;2022-09-25T04:01:25;11.31;75.46
67759;SHT31;54562;47.620;18.786;2022-09-25T04:04:35;11.31;75.55
67759;SHT31;54562;47.620;18.786;2022-09-25T04:07:43;11.32;75.54
67759;SHT31;54562;47.620;18.786;2022-09-25T04:10:51;11.33;75.79
67759;SHT31;54562;47.620;18.786;2022-09-25T04:14:02;11.35;75.81
67759;SHT31;54562;47.620;18.786;2022-09-25T04:17:10;11.38;75.85
67759;SHT31;54562;47.620;18.786;2022-09-25T04:20:19;11.41;76.14
67759;SHT31;54562;47.620;18.786;2022-09-25T04:23:27;11.41;76.20
67759;SHT31;54562;47.620;18.786;2022-09-25T04:26:37;11.44;76.18
67759;SHT31;54562;47.620;18.786;2022-09-25T04:29:45;11.44;76.18
67759;SHT31;54562;47.620;18.786;2022-09-25T04:32:54;11.43;76.29
67759;SHT31;54562;47.620;18.786;2022-09-25T04:36:20;11.42;76.44
67759;SHT31;54562;47.620;18.786;2022-09-25T04:39:28;11.42;76.50
67759;SHT31;54562;47.620;18.786;2022-09-25T04:42:37;11.43;76.41
67759;SHT31;54562;47.620;18.786;2022-09-25T04:45:46;11.44;76.60
67759;SHT31;54562;47.620;18.786;2022-09-25T04:48:54;11.43;76.69
67759;SHT31;54562;47.620;18.786;2022-09-25T04:52:03;11.42;76.79
67759;SHT31;54562;47.620;18.786;2022-09-25T04:55:11;11.41;76.89
67759;SHT31;54562;47.620;18.786;2022-09-25T04:58:20;11.44;76.99
67759;SHT31;54562;47.620;18.786;2022-09-25T05:01:30;11.47;77.05
67759;SHT31;54562;47.620;18.786;2022-09-25T05:04:38;11.49;77.00
67759;SHT31;54562;47.620;18.786;2022-09-25T05:07:53;11.51;76.90
67759;SHT31;54562;47.620;18.786;2022-09-25T05:11:05;11.51;76.93
67759;SHT31;54562;47.620;18.786;2022-09-25T05:14:13;11.51;76.95
67759;SHT31;54562;47.620;18.786;2022-09-25T05:17:21;11.50;77.11
67759;SHT31;54562;47.620;18.786;2022-09-25T05:20:29;11.50;77.20
67759;SHT31;54562;47.620;18.786;2022-09-25T05:23:38;11.50;77.28
67759;SHT31;54562;47.620;18.786;2022-09-25T05:26:46;11.53;77.34
67759;SHT31;54562;47.620;18.786;2022-09-25T05:29:54;11.56;77.41
67759;SHT31;54562;47.620;18.786;2022-09-25T05:33:04;11.63;77.57
67759;SHT31;54562;47.620;18.786;2022-09-25T05:36:12;11.68;77.64
67759;SHT31;54562;47.620;18.786;2022-09-25T05:39:21;11.75;77.83
67759;SHT31;54562;47.620;18.786;2022-09-25T05:42:30;11.80;77.66
67759;SHT31;54562;47.620;18.786;2022-09-25T05:45:38;11.86;77.56
67759;SHT31;54562;47.620;18.786;2022-09-25T05:48:46;11.89;77.41
67759;SHT31;54562;47.620;18.786;2022-09-25T05:51:57;11.93;77.30
67759;SHT31;54562;47.620;18.786;2022-09-25T05:55:07;12.00;77.24
67759;SHT31;54562;47.620;18.786;2022-09-25T05:58:16;12.06;77.24
67759;SHT31;54562;47.620;18.786;2022-09-25T06:01:25;12.13;77.22
67759;SHT31;54562;47.620;18.786;2022-09-25T06:04:33;12.19;77.26
67759;SHT31;54562;47.620;18.786;2022-09-25T06:07:41;12.26;77.18
67759;SHT31;54562;47.620;18.786;2022-09-25T06:10:56;12.32;77.03
67759;SHT31;54562;47.620;18.786;2022-09-25T06:14:05;12.37;76.96
67759;SHT31;54562;47.620;18.786;2022-09-25T06:17:15;12.44;76.83
67759;SHT31;54562;47.620;18.786;2022-09-25T06:20:24;12.50;76.95
67759;SHT31;54562;47.620;18.786;2022-09-25T06:23:32;12.56;77.00
67759;SHT31;54562;47.620;18.786;2022-09-25T06:26:40;12.64;77.12
67759;SHT31;54562;47.620;18.786;2022-09-25T06:29:48;12.72;77.10
67759;SHT31;54562;47.620;18.786;2022-09-25T06:32:58;12.80;77.18
67759;SHT31;54562;47.620;18.786;2022-09-25T06:36:05;12.86;77.11
67759;SHT31;54562;47.620;18.786;2022-09-25T06:39:13;12.93;76.93
67759;SHT31;54562;47.620;18.786;2022-09-25T06:42:21;13.01;76.82
67759;SHT31;54562;47.620;18.786;2022-09-25T06:45:30;13.09;76.68
67759;SHT31;54562;47.620;18.786;2022-09-25T06:48:41;13.15;76.61
67759;SHT31;54562;47.620;18.786;2022-09-25T06:51:54;13.24;76.59
67759;SHT31;54562;47.620;18.786;2022-09-25T06:55:03;13.33;76.51
67759;SHT31;54562;47.620;18.786;2022-09-25T06:58:13;13.42;76.48
67759;SHT31;54562;47.620;18.786;2022-09-25T07:01:24;13.51;76.27
67759;SHT31;54562;47.620;18.786;2022-09-25T07:04:32;13.59;76.35
67759;SHT31;54562;47.620;18.786;2022-09-25T07:07:40;13.68;76.18
67759;SHT31;54562;47.620;18.786;2022-09-25T07:10:49;13.77;75.89
67759;SHT31;54562;47.620;18.786;2022-09-25T07:13:59;13.89;75.78
67759;SHT31;54562;47.620;18.786;2022-09-25T07:17:07;14.02;75.63
67759;SHT31;54562;47.620;18.786;2022-09-25T07:20:16;14.15;75.45
67759;SHT31;54562;47.620;18.786;2022-09-25T07:23:24;14.30;75.33
67759;SHT31;54562;47.620;18.786;2022-09-25T07:26:33;14.43;74.97
67759;SHT31;54562;47.620;18.786;2022-09-25T07:29:45;14.52;74.63
67759;SHT31;54562;47.620;18.786;2022-09-25T07:32:55;14.59;74.46
67759;SHT31;54562;47.620;18.786;2022-09-25T07:36:03;14.65;74.28
67759;SHT31;54562;47.620;18.786;2022-09-25T07:39:14;14.68;73.95
67759;SHT31;54562;47.620;18.786;2022-09-25T07:42:23;14.72;73.77
67759;SHT31;54562;47.620;18.786;2022-09-25T07:45:31;14.75;73.40
67759;SHT31;54562;47.620;18.786;2022-09-25T07:48:40;14.76;73.13
67759;SHT31;54562;47.620;18.786;2022-09-25T07:51:48;14.77;73.16
67759;SHT31;54562;47.620;18.786;2022-09-25T07:54:58;14.77;73.08
67759;SHT31;54562;47.620;18.786;2022-09-25T07:58:06;14.77;72.76
67759;SHT31;54562;47.620;18.786;2022-09-25T08:01:16;14.78;72.64
67759;SHT31;54562;47.620;18.786;2022-09-25T08:04:26;14.78;72.53
67759;SHT31;54562;47.620;18.786;2022-09-25T08:07:37;14.81;72.67
67759;SHT31;54562;47.620;18.786;2022-09-25T08:10:46;14.83;72.42
67759;SHT31;54562;47.620;18.786;2022-09-25T08:13:55;14.85;72.32
67759;SHT31;54562;47.620;18.786;2022-09-25T08:17:07;14.88;72.47
67759;SHT31;54562;47.620;18.786;2022-09-25T08:20:16;14.92;72.29
67759;SHT31;54562;47.620;18.786;2022-09-25T08:23:24;14.96;72.17
67759;SHT31;54562;47.620;18.786;2022-09-25T08:26:32;14.99;72.18
67759;SHT31;54562;47.620;18.786;2022-09-25T08:29:40;15.06;72.07
67759;SHT31;54562;47.620;18.786;2022-09-25T08:32:49;15.13;71.97
67759;SHT31;54562;47.620;18.786;2022-09-25T08:35:58;15.25;71.72
67759;SHT31;54562;47.620;18.786;2022-09-25T08:39:09;15.36;71.57
67759;SHT31;54562;47.620;18.786;2022-09-25T08:42:18;15.41;71.17
67759;SHT31;54562;47.620;18.786;2022-09-25T08:45:39;15.44;70.94
67759;SHT31;54562;47.620;18.786;2022-09-25T08:49:09;15.47;70.82
67759;SHT31;54562;47.620;18.786;2022-09-25T08:52:23;15.50;70.72
67759;SHT31;54562;47.620;18.786;2022-09-25T08:55:35;15.54;70.32
67759;SHT31;54562;47.620;18.786;2022-09-25T08:59:09;15.54;70.16
67759;SHT31;54562;47.620;18.786;2022-09-25T09:02:35;15.58;70.32
67759;SHT31;54562;47.620;18.786;2022-09-25T09:05:48;15.65;70.58
67759;SHT31;54562;47.620;18.786;2022-09-25T09:09:05;15.72;70.11
67759;SHT31;54562;47.620;18.786;2022-09-25T09:12:22;15.78;70.15
67759;SHT31;54562;47.620;18.786;2022-09-25T09:15:41;15.86;69.76
67759;SHT31;54562;47.620;18.786;2022-09-25T09:18:58;15.88;69.51
67759;SHT31;54562;47.620;18.786;2022-09-25T09:22:11;15.88;69.31
67759;SHT31;54562;47.620;18.786;2022-09-25T09:25:26;15.90;69.37
67759;SHT31;54562;47.620;18.786;2022-09-25T09:29:08;15.89;69.01
67759;SHT31;54562;47.620;18.786;2022-09-25T09:36:40;15.82;68.89
67759;SHT31;54562;47.620;18.786;2022-09-25T09:40:01;15.82;69.05
67759;SHT31;54562;47.620;18.786;2022-09-25T09:43:28;15.80;68.95
67759;SHT31;54562;47.620;18.786;2022-09-25T09:46:51;15.80;68.91
67759;SHT31;54562;47.620;18.786;2022-09-25T09:50:18;15.82;68.94
67759;SHT31;54562;47.620;18.786;2022-09-25T09:53:36;15.85;69.07
67759;SHT31;54562;47.620;18.786;2022-09-25T09:56:50;15.84;69.25
67759;SHT31;54562;47.620;18.786;2022-09-25T10:00:04;15.81;69.17
67759;SHT31;54562;47.620;18.786;2022-09-25T10:03:21;15.78;69.27
67759;SHT31;54562;47.620;18.786;2022-09-25T10:06:35;15.78;69.32
67759;SHT31;54562;47.620;18.786;2022-09-25T10:09:52;15.80;69.29
67759;SHT31;54562;47.620;18.786;2022-09-25T10:13:02;15.83;69.17
67759;SHT31;54562;47.620;18.786;2022-09-25T10:16:25;15.81;68.84
67759;SHT31;54562;47.620;18.786;2022-09-25T10:19:44;15.78;68.93
67759;SHT31;54562;47.620;18.786;2022-09-25T10:22:59;15.79;68.84
67759;SHT31;54562;47.620;18.786;2022-09-25T10:26:24;15.79;69.07
67759;SHT31;54562;47.620;18.786;2022-09-25T10:29:38;15.82;69.07
67759;SHT31;54562;47.620;18.786;2022-09-25T10:32:50;15.79;69.29
67759;SHT31;54562;47.620;18.786;2022-09-25T10:36:09;15.76;70.13
67759;SHT31;54562;47.620;18.786;2022-09-25T10:39:26;15.76;70.52
67759;SHT31;54562;47.620;18.786;2022-09-25T10:43:00;15.72;70.55
67759;SHT31;54562;47.620;18.786;2022-09-25T10:46:26;15.66;70.44
67759;SHT31;54562;47.620;18.786;2022-09-25T10:49:56;15.59;70.61
67759;SHT31;54562;47.620;18.786;2022-09-25T10:53:24;15.53;71.13
67759;SHT31;54562;47.620;18.786;2022-09-25T10:56:32;15.50;71.99
67759;SHT31;54562;47.620;18.786;2022-09-25T10:59:44;15.52;72.29
67759;SHT31;54562;47.620;18.786;2022-09-25T11:02:56;15.54;72.93
67759;SHT31;54562;47.620;18.786;2022-09-25T11:06:17;15.58;73.17
67759;SHT31;54562;47.620;18.786;2022-09-25T11:09:29;15.62;73.60
67759;SHT31;54562;47.620;18.786;2022-09-25T11:12:40;15.67;73.81
67759;SHT31;54562;47.620;18.786;2022-09-25T11:15:52;15.66;73.42
67759;SHT31;54562;47.620;18.786;2022-09-25T11:19:06;15.63;73.74
67759;SHT31;54562;47.620;18.786;2022-09-25T11:22:19;15.61;73.95
67759;SHT31;54562;47.620;18.786;2022-09-25T11:25:39;15.61;73.88
67759;SHT31;54562;47.620;18.786;2022-09-25T11:28:56;15.57;74.08
67759;SHT31;54562;47.620;18.786;2022-09-25T11:32:12;15.48;74.34
67759;SHT31;54562;47.620;18.786;2022-09-25T11:35:35;15.35;74.72
67759;SHT31;54562;47.620;18.786;2022-09-25T11:38:57;15.25;75.25
67759;SHT31;54562;47.620;18.786;2022-09-25T11:42:31;15.17;75.41
67759;SHT31;54562;47.620;18.786;2022-09-25T11:45:49;15.11;75.51
67759;SHT31;54562;47.620;18.786;2022-09-25T11:49:07;15.03;76.12
67759;SHT31;54562;47.620;18.786;2022-09-25T11:52:29;14.99;76.71
67759;SHT31;54562;47.620;18.786;2022-09-25T11:55:51;14.94;76.89
67759;SHT31;54562;47.620;18.786;2022-09-25T11:59:23;14.86;77.18
67759;SHT31;54562;47.620;18.786;2022-09-25T12:02:56;14.83;77.64
67759;SHT31;54562;47.620;18.786;2022-09-25T12:06:23;14.80;77.91
67759;SHT31;54562;47.620;18.786;2022-09-25T12:09:55;14.76;78.11
67759;SHT31;54562;47.620;18.786;2022-09-25T12:13:20;14.73;78.28
67759;SHT31;54562;47.620;18.786;2022-09-25T12:16:38;14.71;78.57
67759;SHT31;54562;47.620;18.786;2022-09-25T12:19:57;14.70;78.83
67759;SHT31;54562;47.620;18.786;2022-09-25T12:23:22;14.70;78.84
67759;SHT31;54562;47.620;18.786;2022-09-25T12:26:38;14.70;78.97
67759;SHT31;54562;47.620;18.786;2022-09-25T12:29:59;14.69;79.26
67759;SHT31;54562;47.620;18.786;2022-09-25T12:33:20;14.70;79.56
67759;SHT31;54562;47.620;18.786;2022-09-25T12:36:41;14.68;79.78
67759;SHT31;54562;47.620;18.786;2022-09-25T12:39:58;14.66;79.81
67759;SHT31;54562;47.620;18.786;2022-09-25T12:43:16;14.64;79.97
67759;SHT31;54562;47.620;18.786;2022-09-25T12:46:29;14.60;80.03
67759;SHT31;54562;47.620;18.786;2022-09-25T12:49:45;14.56;80.27
67759;SHT31;54562;47.620;18.786;2022-09-25T12:53:01;14.56;80.55
67759;SHT31;54562;47.620;18.786;2022-09-25T12:56:25;14.55;80.77
67759;SHT31;54562;47.620;18.786;2022-09-25T12:59:41;14.56;81.06
67759;SHT31;54562;47.620;18.786;2022-09-25T13:02:54;14.57;81.34
67759;SHT31;54562;47.620;18.786;2022-09-25T13:06:10;14.55;81.33
67759;SHT31;54562;47.620;18.786;2022-09-25T13:09:31;14.53;81.28
67759;SHT31;54562;47.620;18.786;2022-09-25T13:12:43;14.57;81.52
67759;SHT31;54562;47.620;18.786;2022-09-25T13:15:59;14.59;81.43
67759;SHT31;54562;47.620;18.786;2022-09-25T13:19:11;14.59;81.45
67759;SHT31;54562;47.620;18.786;2022-09-25T13:22:35;14.64;81.82
67759;SHT31;54562;47.620;18.786;2022-09-25T13:25:48;14.69;81.93
67759;SHT31;54562;47.620;18.786;2022-09-25T13:29:03;14.74;81.97
67759;SHT31;54562;47.620;18.786;2022-09-25T13:32:27;14.75;81.74
67759;SHT31;54562;47.620;18.786;2022-09-25T13:35:37;14.76;81.71
67759;SHT31;54562;47.620;18.786;2022-09-25T13:38:46;14.74;81.68
67759;SHT31;54562;47.620;18.786;2022-09-25T13:42:19;14.69;81.87
67759;SHT31;54562;47.620;18.786;2022-09-25T13:45:32;14.65;81.93
67759;SHT31;54562;47.620;18.786;2022-09-25T13:48:43;14.63;82.07
67759;SHT31;54562;47.620;18.786;2022-09-25T13:51:52;14.62;82.19
67759;SHT31;54562;47.620;18.786;2022-09-25T13:55:10;14.57;82.23
67759;SHT31;54562;47.620;18.786;2022-09-25T13:58:23;14.54;82.38
67759;SHT31;54562;47.620;18.786;2022-09-25T14:01:35;14.49;82.46
67759;SHT31;54562;47.620;18.786;2022-09-25T14:04:47;14.44;82.63
67759;SHT31;54562;47.620;18.786;2022-09-25T14:07:56;14.37;82.79
67759;SHT31;54562;47.620;18.786;2022-09-25T14:11:14;14.32;82.87
67759;SHT31;54562;47.620;18.786;2022-09-25T14:14:31;14.25;82.96
67759;SHT31;54562;47.620;18.786;2022-09-25T14:17:48;14.16;83.07
67759;SHT31;54562;47.620;18.786;2022-09-25T14:21:01;14.10;83.28
67759;SHT31;54562;47.620;18.786;2022-09-25T14:24:45;14.04;83.48
67759;SHT31;54562;47.620;18.786;2022-09-25T14:27:54;14.00;83.60
67759;SHT31;54562;47.620;18.786;2022-09-25T14:31:08;13.98;83.82
67759;SHT31;54562;47.620;18.786;2022-09-25T14:34:53;13.97;84.03
67759;SHT31;54562;47.620;18.786;2022-09-25T14:38:21;13.95;84.07
67759;SHT31;54562;47.620;18.786;2022-09-25T14:41:57;13.94;84.13
67759;SHT31;54562;47.620;18.786;2022-09-25T14:45:53;13.94;84.23
67759;SHT31;54562;47.620;18.786;2022-09-25T14:49:16;13.94;84.30
67759;SHT31;54562;47.620;18.786;2022-09-25T14:52:33;13.92;84.38
67759;SHT31;54562;47.620;18.786;2022-09-25T14:55:45;13.90;84.44
67759;SHT31;54562;47.620;18.786;2022-09-25T14:58:56;13.88;84.54
67759;SHT31;54562;47.620;18.786;2022-09-25T15:02:14;13.87;84.67
67759;SHT31;54562;47.620;18.786;2022-09-25T15:05:28;13.86;84.75
67759;SHT31;54562;47.620;18.786;2022-09-25T15:08:40;13.85;84.80
67759;SHT31;54562;47.620;18.786;2022-09-25T15:11:52;13.84;84.93
67759;SHT31;54562;47.620;18.786;2022-09-25T15:15:02;13.81;85.03
67759;SHT31;54562;47.620;18.786;2022-09-25T15:18:16;13.80;85.14
67759;SHT31;54562;47.620;18.786;2022-09-25T15:21:28;13.79;85.15
67759;SHT31;54562;47.620;18.786;2022-09-25T15:24:42;13.78;85.18
67759;SHT31;54562;47.620;18.786;2022-09-25T15:27:57;13.77;85.30
67759;SHT31;54562;47.620;18.786;2022-09-25T15:31:09;13.76;85.34
67759;SHT31;54562;47.620;18.786;2022-09-25T15:34:22;13.75;85.40
67759;SHT31;54562;47.620;18.786;2022-09-25T15:37:33;13.73;85.49
67759;SHT31;54562;47.620;18.786;2022-09-25T15:40:41;13.71;85.57
67759;SHT31;54562;47.620;18.786;2022-09-25T15:44:10;13.69;85.68
67759;SHT31;54562;47.620;18.786;2022-09-25T15:51:00;13.64;85.98
67759;SHT31;54562;47.620;18.786;2022-09-25T15:54:25;13.59;86.16
67759;SHT31;54562;47.620;18.786;2022-09-25T15:57:51;13.56;86.21
67759;SHT31;54562;47.620;18.786;2022-09-25T16:01:11;13.55;86.22
67759;SHT31;54562;47.620;18.786;2022-09-25T16:04:47;13.56;86.28
67759;SHT31;54562;47.620;18.786;2022-09-25T16:11:34;13.54;86.43
67759;SHT31;54562;47.620;18.786;2022-09-25T16:14:42;13.52;86.41
67759;SHT31;54562;47.620;18.786;2022-09-25T16:17:52;13.49;86.46
67759;SHT31;54562;47.620;18.786;2022-09-25T16:21:11;13.46;86.47
67759;SHT31;54562;47.620;18.786;2022-09-25T16:24:25;13.45;86.50
67759;SHT31;54562;47.620;18.786;2022-09-25T16:27:36;13.44;86.61
67759;SHT31;54562;47.620;18.786;2022-09-25T16:30:53;13.41;86.62
67759;SHT31;54562;47.620;18.786;2022-09-25T16:34:07;13.39;86.67
67759;SHT31;54562;47.620;18.786;2022-09-25T16:37:30;13.36;86.80
67759;SHT31;54562;47.620;18.786;2022-09-25T16:40:39;13.32;86.83
67759;SHT31;54562;47.620;18.786;2022-09-25T16:44:09;13.29;86.87
67759;SHT31;54562;47.620;18.786;2022-09-25T16:47:21;13.28;86.93
67759;SHT31;54562;47.620;18.786;2022-09-25T16:50:36;13.26;86.97
67759;SHT31;54562;47.620;18.786;2022-09-25T16:53:46;13.26;87.01
67759;SHT31;54562;47.620;18.786;2022-09-25T16:56:55;13.27;87.03
67759;SHT31;54562;47.620;18.786;2022-09-25T17:00:05;13.29;87.04
67759;SHT31;54562;47.620;18.786;2022-09-25T17:03:20;13.30;87.00
67759;SHT31;54562;47.620;18.786;2022-09-25T17:06:28;13.32;86.99
67759;SHT31;54562;47.620;18.786;2022-09-25T17:09:41;13.35;87.00
67759;SHT31;54562;47.620;18.786;2022-09-25T17:12:51;13.35;87.02
67759;SHT31;54562;47.620;18.786;2022-09-25T17:16:05;13.36;87.00
67759;SHT31;54562;47.620;18.786;2022-09-25T17:19:13;13.37;87.03
67759;SHT31;54562;47.620;18.786;2022-09-25T17:22:21;13.37;87.13
67759;SHT31;54562;47.620;18.786;2022-09-25T17:25:37;13.36;87.22
67759;SHT31;54562;47.620;18.786;2022-09-25T17:28:50;13.34;87.34
67759;SHT31;54562;47.620;18.786;2022-09-25T17:31:58;13.31;87.43
67759;SHT31;54562;47.620;18.786;2022-09-25T17:35:11;13.29;87.53
67759;SHT31;54562;47.620;18.786;2022-09-25T17:38:37;13.29;87.63
67759;SHT31;54562;47.620;18.786;2022-09-25T17:41:45;13.29;87.68
67759;SHT31;54562;47.620;18.786;2022-09-25T17:44:54;13.29;87.70
67759;SHT31;54562;47.620;18.786;2022-09-25T17:48:02;13.29;87.68
67759;SHT31;54562;47.620;18.786;2022-09-25T17:51:11;13.30;87.64
67759;SHT31;54562;47.620;18.786;2022-09-25T17:54:23;13.32;87.60
67759;SHT31;54562;47.620;18.786;2022-09-25T17:57:32;13.31;87.63
67759;SHT31;54562;47.620;18.786;2022-09-25T18:00:39;13.30;87.71
67759;SHT31;54562;47.620;18.786;2022-09-25T18:03:48;13.28;87.77
67759;SHT31;54562;47.620;18.786;2022-09-25T18:10:06;13.25;87.90
67759;SHT31;54562;47.620;18.786;2022-09-25T18:13:16;13.24;87.98
67759;SHT31;54562;47.620;18.786;2022-09-25T18:16:26;13.23;88.00
67759;SHT31;54562;47.620;18.786;2022-09-25T18:19:35;13.24;88.00
67759;SHT31;54562;47.620;18.786;2022-09-25T18:23:01;13.25;87.92
67759;SHT31;54562;47.620;18.786;2022-09-25T18:26:10;13.26;87.90
67759;SHT31;54562;47.620;18.786;2022-09-25T18:29:19;13.26;87.94
67759;SHT31;54562;47.620;18.786;2022-09-25T18:32:28;13.25;88.00
67759;SHT31;54562;47.620;18.786;2022-09-25T18:35:36;13.23;88.07
67759;SHT31;54562;47.620;18.786;2022-09-25T18:38:45;13.21;88.11
67759;SHT31;54562;47.620;18.786;2022-09-25T18:41:53;13.19;88.22
67759;SHT31;54562;47.620;18.786;2022-09-25T18:45:00;13.18;88.29
67759;SHT31;54562;47.620;18.786;2022-09-25T18:48:11;13.17;88.33
67759;SHT31;54562;47.620;18.786;2022-09-25T18:51:19;13.16;88.42
67759;SHT31;54562;47.620;18.786;2022-09-25T18:54:27;13.15;88.47
67759;SHT31;54562;47.620;18.786;2022-09-25T18:57:35;13.15;88.53
67759;SHT31;54562;47.620;18.786;2022-09-25T19:00:44;13.15;88.55
67759;SHT31;54562;47.620;18.786;2022-09-25T19:03:53;13.15;88.60
67759;SHT31;54562;47.620;18.786;2022-09-25T19:07:02;13.14;88.64
67759;SHT31;54562;47.620;18.786;2022-09-25T19:10:10;13.13;88.73
67759;SHT31;54562;47.620;18.786;2022-09-25T19:13:18;13.12;88.81
67759;SHT31;54562;47.620;18.786;2022-09-25T19:16:27;13.12;88.86
67759;SHT31;54562;47.620;18.786;2022-09-25T19:19:40;13.11;88.90
67759;SHT31;54562;47.620;18.786;2022-09-25T19:22:49;13.12;88.91
67759;SHT31;54562;47.620;18.786;2022-09-25T19:25:58;13.12;88.95
67759;SHT31;54562;47.620;18.786;2022-09-25T19:29:09;13.12;89.01
67759;SHT31;54562;47.620;18.786;2022-09-25T19:32:18;13.13;89.02
67759;SHT31;54562;47.620;18.786;2022-09-25T19:35:28;13.13;89.07
67759;SHT31;54562;47.620;18.786;2022-09-25T19:38:37;13.14;89.06
67759;SHT31;54562;47.620;18.786;2022-09-25T19:41:45;13.15;89.10
67759;SHT31;54562;47.620;18.786;2022-09-25T19:44:55;13.15;89.06
67759;SHT31;54562;47.620;18.786;2022-09-25T19:48:04;13.17;89.00
67759;SHT31;54562;47.620;18.786;2022-09-25T19:51:14;13.18;89.00
67759;SHT31;54562;47.620;18.786;2022-09-25T19:54:25;13.18;89.03
67759;SHT31;54562;47.620;18.786;2022-09-25T19:57:33;13.18;89.06
67759;SHT31;54562;47.620;18.786;2022-09-25T20:00:41;13.16;89.07
67759;SHT31;54562;47.620;18.786;2022-09-25T20:03:50;13.16;89.10
67759;SHT31;54562;47.620;18.786;2022-09-25T20:06:59;13.17;89.10
67759;SHT31;54562;47.620;18.786;2022-09-25T20:10:08;13.17;89.07
67759;SHT31;54562;47.620;18.786;2022-09-25T20:13:16;13.17;89.01
67759;SHT31;54562;47.620;18.786;2022-09-25T20:16:25;13.17;89.03
67759;SHT31;54562;47.620;18.786;2022-09-25T20:19:36;13.16;89.07